sensor_id;sensor_type;location;lat;lon;timestamp;temperature;humidity
52297;DHT22;38244;51.046;17.038;2022-11-20T00:01:15;4.97;42.68
52297;DHT22;38244;51.046;17.038;2022-11-20T00:03:42;5.05;44.47
52297;DHT22;38244;51.046;17.038;2022-11-20T00:06:12;5.07;43.26
52297;DHT22;38244;51.046;17.038;2022-11-20T00:08:41;4.92;43.90
52297;DHT22;38244;51.046;17.038;2022-11-20T00:11:17;5.04;44.05
52297;DHT22;38244;51.046;17.038;2022-11-20T00:13:47;5.20;43.20
52297;DHT22;38244;51.046;17.038;2022-11-20T00:16:18;4.98;43.20
52297;DHT22;38244;51.046;17.038;2022-11-20T00:18:44;4.91;43.34
52297;DHT22;38244;51.046;17.038;2022-11-20T00:21:15;4.95;43.49
52297;DHT22;38244;51.046;17.038;2022-11-20T00:23:43;4.88;43.42
52297;DHT22;38244;51.046;17.038;2022-11-20T00:26:14;5.00;43.43
52297;DHT22;38244;51.046;17.038;2022-11-20T00:28:41;5.12;43.08
52297;DHT22;38244;51.046;17.038;2022-11-20T00:31:15;5.12;42.94
52297;DHT22;38244;51.046;17.038;2022-11-20T00:33:45;5.11;43.11
52297;DHT22;38244;51.046;17.038;2022-11-20T00:36:15;5.20;43.01
52297;DHT22;38244;51.046;17.038;2022-11-20T00:38:43;5.00;42.79
52297;DHT22;38244;51.046;17.038;2022-11-20T00:41:15;4.91;43.15
52297;DHT22;38244;51.046;17.038;2022-11-20T00:43:42;4.84;43.37
52297;DHT22;38244;51.046;17.038;2022-11-20T00:46:18;4.94;43.31
52297;DHT22;38244;51.046;17.038;2022-11-20T00:48:43;4.92;43.12
52297;DHT22;38244;51.046;17.038;2022-11-20T00:51:12;4.94;43.26
52297;DHT22;38244;51.046;17.038;2022-11-20T00:53:39;5.02;43.13
52297;DHT22;38244;51.046;17.038;2022-11-20T00:56:13;5.08;43.32
52297;DHT22;38244;51.046;17.038;2022-11-20T00:58:38;5.22;43.18
52297;DHT22;38244;51.046;17.038;2022-11-20T01:01:12;4.90;42.16
52297;DHT22;38244;51.046;17.038;2022-11-20T01:03:42;5.01;43.52
52297;DHT22;38244;51.046;17.038;2022-11-20T01:06:21;5.20;43.22
52297;DHT22;38244;51.046;17.038;2022-11-20T01:08:49;4.90;42.39
52297;DHT22;38244;51.046;17.038;2022-11-20T01:11:23;5.09;43.36
52297;DHT22;38244;51.046;17.038;2022-11-20T01:13:51;5.26;43.01
52297;DHT22;38244;51.046;17.038;2022-11-20T01:16:32;4.90;42.40
52297;DHT22;38244;51.046;17.038;2022-11-20T01:19:00;5.07;43.44
52297;DHT22;38244;51.046;17.038;2022-11-20T01:21:33;5.25;43.30
52297;DHT22;38244;51.046;17.038;2022-11-20T01:24:00;4.83;42.68
52297;DHT22;38244;51.046;17.038;2022-11-20T01:26:33;4.95;43.54
52297;DHT22;38244;51.046;17.038;2022-11-20T01:29:00;5.09;43.23
52297;DHT22;38244;51.046;17.038;2022-11-20T01:31:30;5.23;42.79
52297;DHT22;38244;51.046;17.038;2022-11-20T01:34:03;4.92;42.86
52297;DHT22;38244;51.046;17.038;2022-11-20T01:36:30;5.07;42.93
52297;DHT22;38244;51.046;17.038;2022-11-20T01:39:02;5.16;42.85
52297;DHT22;38244;51.046;17.038;2022-11-20T01:41:30;5.05;42.43
52297;DHT22;38244;51.046;17.038;2022-11-20T01:44:18;4.97;43.08
52297;DHT22;38244;51.046;17.038;2022-11-20T01:46:56;5.15;42.64
52297;DHT22;38244;51.046;17.038;2022-11-20T01:52:18;5.09;42.59
52297;DHT22;38244;51.046;17.038;2022-11-20T01:54:56;5.01;42.56
52297;DHT22;38244;51.046;17.038;2022-11-20T01:57:19;4.95;42.73
52297;DHT22;38244;51.046;17.038;2022-11-20T01:59:54;4.98;42.67
52297;DHT22;38244;51.046;17.038;2022-11-20T02:02:21;4.88;42.58
52297;DHT22;38244;51.046;17.038;2022-11-20T02:04:49;4.72;42.88
52297;DHT22;38244;51.046;17.038;2022-11-20T02:07:17;4.62;43.09
52297;DHT22;38244;51.046;17.038;2022-11-20T02:09:43;4.69;43.15
52297;DHT22;38244;51.046;17.038;2022-11-20T02:12:10;4.81;43.14
52297;DHT22;38244;51.046;17.038;2022-11-20T02:14:38;4.65;42.85
52297;DHT22;38244;51.046;17.038;2022-11-20T02:17:04;4.52;43.05
52297;DHT22;38244;51.046;17.038;2022-11-20T02:19:31;4.46;43.43
52297;DHT22;38244;51.046;17.038;2022-11-20T02:22:37;4.48;43.34
52297;DHT22;38244;51.046;17.038;2022-11-20T02:25:04;4.42;43.44
52297;DHT22;38244;51.046;17.038;2022-11-20T02:27:32;4.45;43.35
52297;DHT22;38244;51.046;17.038;2022-11-20T02:30:07;4.43;43.27
52297;DHT22;38244;51.046;17.038;2022-11-20T02:32:35;4.56;43.88
52297;DHT22;38244;51.046;17.038;2022-11-20T02:37:52;4.74;43.00
52297;DHT22;38244;51.046;17.038;2022-11-20T02:40:19;4.87;42.84
52297;DHT22;38244;51.046;17.038;2022-11-20T02:42:46;4.86;42.61
52297;DHT22;38244;51.046;17.038;2022-11-20T02:45:12;4.79;42.46
52297;DHT22;38244;51.046;17.038;2022-11-20T02:47:38;4.72;42.94
52297;DHT22;38244;51.046;17.038;2022-11-20T02:50:06;4.98;43.22
52297;DHT22;38244;51.046;17.038;2022-11-20T02:52:32;5.22;43.02
52297;DHT22;38244;51.046;17.038;2022-11-20T02:54:58;4.86;42.03
52297;DHT22;38244;51.046;17.038;2022-11-20T02:57:24;4.91;42.82
52297;DHT22;38244;51.046;17.038;2022-11-20T02:59:51;5.08;42.52
52297;DHT22;38244;51.046;17.038;2022-11-20T03:02:17;5.19;42.54
52297;DHT22;38244;51.046;17.038;2022-11-20T03:04:43;4.90;41.82
52297;DHT22;38244;51.046;17.038;2022-11-20T03:07:10;4.80;42.70
52297;DHT22;38244;51.046;17.038;2022-11-20T03:09:36;4.88;42.57
52297;DHT22;38244;51.046;17.038;2022-11-20T03:12:03;4.73;42.55
52297;DHT22;38244;51.046;17.038;2022-11-20T03:14:29;4.62;43.06
52297;DHT22;38244;51.046;17.038;2022-11-20T03:16:55;4.76;43.42
52297;DHT22;38244;51.046;17.038;2022-11-20T03:19:22;4.98;43.07
52297;DHT22;38244;51.046;17.038;2022-11-20T03:21:48;5.07;42.71
52297;DHT22;38244;51.046;17.038;2022-11-20T03:24:15;5.09;42.58
52297;DHT22;38244;51.046;17.038;2022-11-20T03:26:41;5.12;42.51
52297;DHT22;38244;51.046;17.038;2022-11-20T03:29:08;5.20;42.51
52297;DHT22;38244;51.046;17.038;2022-11-20T03:31:38;4.98;41.77
52297;DHT22;38244;51.046;17.038;2022-11-20T03:34:09;5.05;42.58
52297;DHT22;38244;51.046;17.038;2022-11-20T03:36:39;5.16;42.51
52297;DHT22;38244;51.046;17.038;2022-11-20T03:39:05;5.19;42.40
52297;DHT22;38244;51.046;17.038;2022-11-20T03:41:36;4.94;41.46
52297;DHT22;38244;51.046;17.038;2022-11-20T03:44:05;4.97;42.79
52297;DHT22;38244;51.046;17.038;2022-11-20T03:46:32;5.15;42.89
52297;DHT22;38244;51.046;17.038;2022-11-20T03:48:59;5.12;42.11
52297;DHT22;38244;51.046;17.038;2022-11-20T03:51:31;5.08;42.59
52297;DHT22;38244;51.046;17.038;2022-11-20T03:54:02;5.19;42.26
52297;DHT22;38244;51.046;17.038;2022-11-20T03:56:32;5.02;42.18
52297;DHT22;38244;51.046;17.038;2022-11-20T03:58:59;4.92;42.24
52297;DHT22;38244;51.046;17.038;2022-11-20T04:01:29;4.97;42.53
52297;DHT22;38244;51.046;17.038;2022-11-20T04:03:58;5.16;42.59
52297;DHT22;38244;51.046;17.038;2022-11-20T04:06:29;4.97;41.48
52297;DHT22;38244;51.046;17.038;2022-11-20T04:08:57;4.92;43.06
52297;DHT22;38244;51.046;17.038;2022-11-20T04:11:27;5.01;42.44
52297;DHT22;38244;51.046;17.038;2022-11-20T04:14:00;4.76;42.08
52297;DHT22;38244;51.046;17.038;2022-11-20T04:16:30;4.56;42.66
52297;DHT22;38244;51.046;17.038;2022-11-20T04:19:01;4.49;43.58
52297;DHT22;38244;51.046;17.038;2022-11-20T04:21:28;4.57;43.37
52297;DHT22;38244;51.046;17.038;2022-11-20T04:23:55;4.52;43.07
52297;DHT22;38244;51.046;17.038;2022-11-20T04:26:24;4.55;43.17
52297;DHT22;38244;51.046;17.038;2022-11-20T04:28:51;4.42;43.16
52297;DHT22;38244;51.046;17.038;2022-11-20T04:31:21;4.24;43.19
52297;DHT22;38244;51.046;17.038;2022-11-20T04:33:48;4.46;44.10
52297;DHT22;38244;51.046;17.038;2022-11-20T04:36:22;4.80;43.97
52297;DHT22;38244;51.046;17.038;2022-11-20T04:41:22;5.07;42.89
52297;DHT22;38244;51.046;17.038;2022-11-20T04:43:54;5.15;42.72
52297;DHT22;38244;51.046;17.038;2022-11-20T04:46:31;5.12;42.33
52297;DHT22;38244;51.046;17.038;2022-11-20T04:48:58;5.02;42.14
52297;DHT22;38244;51.046;17.038;2022-11-20T04:51:25;5.19;42.75
52297;DHT22;38244;51.046;17.038;2022-11-20T04:53:52;4.91;41.23
52297;DHT22;38244;51.046;17.038;2022-11-20T04:56:18;4.94;42.67
52297;DHT22;38244;51.046;17.038;2022-11-20T04:58:44;5.01;42.33
52297;DHT22;38244;51.046;17.038;2022-11-20T05:01:18;4.83;42.18
52297;DHT22;38244;51.046;17.038;2022-11-20T05:03:45;4.62;42.52
52297;DHT22;38244;51.046;17.038;2022-11-20T05:06:15;4.45;42.73
52297;DHT22;38244;51.046;17.038;2022-11-20T05:08:42;4.32;42.53
52297;DHT22;38244;51.046;17.038;2022-11-20T05:11:12;4.14;42.82
52297;DHT22;38244;51.046;17.038;2022-11-20T05:13:40;3.94;43.21
52297;DHT22;38244;51.046;17.038;2022-11-20T05:16:09;3.82;43.82
52297;DHT22;38244;51.046;17.038;2022-11-20T05:18:37;3.66;44.42
52297;DHT22;38244;51.046;17.038;2022-11-20T05:21:05;3.68;44.56
52297;DHT22;38244;51.046;17.038;2022-11-20T05:23:35;3.62;44.40
52297;DHT22;38244;51.046;17.038;2022-11-20T05:26:03;3.44;44.53
52297;DHT22;38244;51.046;17.038;2022-11-20T05:28:31;3.31;44.66
52297;DHT22;38244;51.046;17.038;2022-11-20T05:31:07;3.06;45.00
52297;DHT22;38244;51.046;17.038;2022-11-20T05:33:42;2.76;45.30
52297;DHT22;38244;51.046;17.038;2022-11-20T05:36:11;2.72;45.87
52297;DHT22;38244;51.046;17.038;2022-11-20T05:38:42;2.75;45.52
52297;DHT22;38244;51.046;17.038;2022-11-20T05:41:16;2.63;45.76
52297;DHT22;38244;51.046;17.038;2022-11-20T05:43:48;2.78;46.10
52297;DHT22;38244;51.046;17.038;2022-11-20T05:46:30;2.78;46.03
52297;DHT22;38244;51.046;17.038;2022-11-20T05:48:57;2.74;45.85
52297;DHT22;38244;51.046;17.038;2022-11-20T05:51:40;2.75;45.68
52297;DHT22;38244;51.046;17.038;2022-11-20T05:54:07;2.71;45.83
52297;DHT22;38244;51.046;17.038;2022-11-20T05:56:41;2.72;45.98
52297;DHT22;38244;51.046;17.038;2022-11-20T05:59:07;2.71;45.93
52297;DHT22;38244;51.046;17.038;2022-11-20T06:01:34;2.72;45.96
52297;DHT22;38244;51.046;17.038;2022-11-20T06:04:04;2.65;46.38
52297;DHT22;38244;51.046;17.038;2022-11-20T06:06:33;2.96;46.53
52297;DHT22;38244;51.046;17.038;2022-11-20T06:08:59;3.16;45.78
52297;DHT22;38244;51.046;17.038;2022-11-20T06:11:25;3.30;45.25
52297;DHT22;38244;51.046;17.038;2022-11-20T06:13:52;3.32;44.97
52297;DHT22;38244;51.046;17.038;2022-11-20T06:16:20;3.45;44.99
52297;DHT22;38244;51.046;17.038;2022-11-20T06:18:47;3.51;44.78
52297;DHT22;38244;51.046;17.038;2022-11-20T06:21:18;3.43;44.43
52297;DHT22;38244;51.046;17.038;2022-11-20T06:23:55;3.28;44.83
52297;DHT22;38244;51.046;17.038;2022-11-20T06:26:25;3.32;44.82
52297;DHT22;38244;51.046;17.038;2022-11-20T06:28:54;3.28;44.60
52297;DHT22;38244;51.046;17.038;2022-11-20T06:31:24;3.16;44.72
52297;DHT22;38244;51.046;17.038;2022-11-20T06:33:54;2.95;45.50
52297;DHT22;38244;51.046;17.038;2022-11-20T06:36:22;3.32;46.74
52297;DHT22;38244;51.046;17.038;2022-11-20T06:38:48;3.73;45.76
52297;DHT22;38244;51.046;17.038;2022-11-20T06:41:19;3.87;44.66
52297;DHT22;38244;51.046;17.038;2022-11-20T06:43:46;3.76;44.30
52297;DHT22;38244;51.046;17.038;2022-11-20T06:46:15;4.07;45.27
52297;DHT22;38244;51.046;17.038;2022-11-20T06:48:44;4.49;44.91
52297;DHT22;38244;51.046;17.038;2022-11-20T06:51:12;4.70;43.91
52297;DHT22;38244;51.046;17.038;2022-11-20T06:53:39;4.84;43.60
52297;DHT22;38244;51.046;17.038;2022-11-20T06:56:09;5.09;43.24
52297;DHT22;38244;51.046;17.038;2022-11-20T06:58:36;5.19;42.53
52297;DHT22;38244;51.046;17.038;2022-11-20T07:01:12;5.19;42.59
52297;DHT22;38244;51.046;17.038;2022-11-20T07:04:00;4.87;42.53
52297;DHT22;38244;51.046;17.038;2022-11-20T07:06:29;5.04;43.44
52297;DHT22;38244;51.046;17.038;2022-11-20T07:09:01;5.23;42.81
52297;DHT22;38244;51.046;17.038;2022-11-20T07:11:30;4.87;43.14
52297;DHT22;38244;51.046;17.038;2022-11-20T07:17:29;5.22;42.99
52297;DHT22;38244;51.046;17.038;2022-11-20T07:20:02;5.04;43.43
52297;DHT22;38244;51.046;17.038;2022-11-20T07:22:29;5.02;43.59
52297;DHT22;38244;51.046;17.038;2022-11-20T07:24:59;5.01;43.77
52297;DHT22;38244;51.046;17.038;2022-11-20T07:27:28;4.79;44.27
52297;DHT22;38244;51.046;17.038;2022-11-20T07:29:58;4.86;44.78
52297;DHT22;38244;51.046;17.038;2022-11-20T07:32:25;5.23;44.23
52297;DHT22;38244;51.046;17.038;2022-11-20T07:34:51;4.91;44.39
52297;DHT22;38244;51.046;17.038;2022-11-20T07:37:18;5.00;45.03
52297;DHT22;38244;51.046;17.038;2022-11-20T07:39:44;5.04;45.17
52297;DHT22;38244;51.046;17.038;2022-11-20T07:42:14;5.25;45.15
52297;DHT22;38244;51.046;17.038;2022-11-20T07:44:40;5.53;46.16
52297;DHT22;38244;51.046;17.038;2022-11-20T07:47:06;6.27;45.26
52297;DHT22;38244;51.046;17.038;2022-11-20T07:49:32;6.79;44.43
52297;DHT22;38244;51.046;17.038;2022-11-20T07:52:02;7.46;43.71
52297;DHT22;38244;51.046;17.038;2022-11-20T07:54:30;8.17;42.25
52297;DHT22;38244;51.046;17.038;2022-11-20T07:56:56;8.78;41.72
52297;DHT22;38244;51.046;17.038;2022-11-20T07:59:22;9.36;40.79
52297;DHT22;38244;51.046;17.038;2022-11-20T08:01:54;9.91;39.65
52297;DHT22;38244;51.046;17.038;2022-11-20T08:04:21;10.48;38.61
52297;DHT22;38244;51.046;17.038;2022-11-20T08:06:47;10.93;37.66
52297;DHT22;38244;51.046;17.038;2022-11-20T08:09:18;11.31;37.43
52297;DHT22;38244;51.046;17.038;2022-11-20T08:11:42;11.77;36.32
52297;DHT22;38244;51.046;17.038;2022-11-20T08:14:27;12.16;35.18
52297;DHT22;38244;51.046;17.038;2022-11-20T08:17:02;12.48;35.00
52297;DHT22;38244;51.046;17.038;2022-11-20T08:19:31;12.77;34.41
52297;DHT22;38244;51.046;17.038;2022-11-20T08:21:59;12.87;34.46
52297;DHT22;38244;51.046;17.038;2022-11-20T08:24:26;13.01;33.41
52297;DHT22;38244;51.046;17.038;2022-11-20T08:27:03;13.26;33.48
52297;DHT22;38244;51.046;17.038;2022-11-20T08:29:29;13.63;32.61
52297;DHT22;38244;51.046;17.038;2022-11-20T08:32:16;13.78;32.62
52297;DHT22;38244;51.046;17.038;2022-11-20T08:34:43;13.94;31.82
52297;DHT22;38244;51.046;17.038;2022-11-20T08:37:12;14.05;31.46
52297;DHT22;38244;51.046;17.038;2022-11-20T08:39:40;14.29;31.56
52297;DHT22;38244;51.046;17.038;2022-11-20T08:42:55;14.60;31.10
52297;DHT22;38244;51.046;17.038;2022-11-20T08:45:24;14.77;30.60
52297;DHT22;38244;51.046;17.038;2022-11-20T08:47:52;14.88;30.53
52297;DHT22;38244;51.046;17.038;2022-11-20T08:50:26;14.70;29.56
52297;DHT22;38244;51.046;17.038;2022-11-20T08:55:59;14.56;30.26
52297;DHT22;38244;51.046;17.038;2022-11-20T08:58:30;14.67;29.85
52297;DHT22;38244;51.046;17.038;2022-11-20T09:00:57;14.61;29.73
52297;DHT22;38244;51.046;17.038;2022-11-20T09:07:07;14.16;30.57
52297;DHT22;38244;51.046;17.038;2022-11-20T09:09:33;13.80;30.99
52297;DHT22;38244;51.046;17.038;2022-11-20T09:11:59;13.57;31.27
52297;DHT22;38244;51.046;17.038;2022-11-20T09:14:26;13.25;31.92
52297;DHT22;38244;51.046;17.038;2022-11-20T09:16:54;12.83;31.86
52297;DHT22;38244;51.046;17.038;2022-11-20T09:19:20;12.32;33.05
52297;DHT22;38244;51.046;17.038;2022-11-20T09:21:47;11.57;33.50
52297;DHT22;38244;51.046;17.038;2022-11-20T09:24:18;10.88;34.69
52297;DHT22;38244;51.046;17.038;2022-11-20T09:26:50;10.39;36.10
52297;DHT22;38244;51.046;17.038;2022-11-20T09:29:23;9.91;36.53
52297;DHT22;38244;51.046;17.038;2022-11-20T09:31:52;9.30;37.50
52297;DHT22;38244;51.046;17.038;2022-11-20T09:34:20;8.84;38.66
52297;DHT22;38244;51.046;17.038;2022-11-20T09:36:52;8.55;40.02
52297;DHT22;38244;51.046;17.038;2022-11-20T09:39:19;8.29;40.65
52297;DHT22;38244;51.046;17.038;2022-11-20T09:45:14;7.48;42.46
52297;DHT22;38244;51.046;17.038;2022-11-20T09:53:37;6.64;44.76
52297;DHT22;38244;51.046;17.038;2022-11-20T09:56:03;6.36;45.32
52297;DHT22;38244;51.046;17.038;2022-11-20T09:58:41;6.19;45.80
52297;DHT22;38244;51.046;17.038;2022-11-20T10:01:18;6.01;46.25
52297;DHT22;38244;51.046;17.038;2022-11-20T10:07:34;5.51;47.71
52297;DHT22;38244;51.046;17.038;2022-11-20T10:10:00;5.36;48.30
52297;DHT22;38244;51.046;17.038;2022-11-20T10:13:00;5.29;48.20
52297;DHT22;38244;51.046;17.038;2022-11-20T10:16:03;5.29;48.74
52297;DHT22;38244;51.046;17.038;2022-11-20T10:19:11;5.32;48.63
52297;DHT22;38244;51.046;17.038;2022-11-20T10:22:07;5.25;48.78
52297;DHT22;38244;51.046;17.038;2022-11-20T10:25:00;5.43;48.49
52297;DHT22;38244;51.046;17.038;2022-11-20T10:30:40;5.42;48.54
52297;DHT22;38244;51.046;17.038;2022-11-20T10:33:21;5.36;48.64
52297;DHT22;38244;51.046;17.038;2022-11-20T10:38:51;5.47;47.83
52297;DHT22;38244;51.046;17.038;2022-11-20T10:41:26;5.36;47.81
52297;DHT22;38244;51.046;17.038;2022-11-20T10:47:38;5.29;48.53
52297;DHT22;38244;51.046;17.038;2022-11-20T10:50:05;5.39;47.73
52297;DHT22;38244;51.046;17.038;2022-11-20T10:53:05;5.44;47.10
52297;DHT22;38244;51.046;17.038;2022-11-20T10:55:53;5.19;47.09
52297;DHT22;38244;51.046;17.038;2022-11-20T11:01:22;5.26;47.23
52297;DHT22;38244;51.046;17.038;2022-11-20T11:03:51;5.49;47.46
52297;DHT22;38244;51.046;17.038;2022-11-20T11:06:42;5.47;46.88
52297;DHT22;38244;51.046;17.038;2022-11-20T11:09:21;5.16;47.67
52297;DHT22;38244;51.046;17.038;2022-11-20T11:11:49;5.54;46.34
52297;DHT22;38244;51.046;17.038;2022-11-20T11:14:16;5.26;47.16
52297;DHT22;38244;51.046;17.038;2022-11-20T11:16:55;5.44;47.81
52297;DHT22;38244;51.046;17.038;2022-11-20T11:19:26;5.49;47.03
52297;DHT22;38244;51.046;17.038;2022-11-20T11:21:59;5.18;47.57
52297;DHT22;38244;51.046;17.038;2022-11-20T11:24:29;5.46;47.09
52297;DHT22;38244;51.046;17.038;2022-11-20T11:29:31;5.43;47.39
52297;DHT22;38244;51.046;17.038;2022-11-20T11:32:20;5.42;46.63
52297;DHT22;38244;51.046;17.038;2022-11-20T11:35:01;5.23;47.71
52297;DHT22;38244;51.046;17.038;2022-11-20T11:37:41;5.43;46.74
52297;DHT22;38244;51.046;17.038;2022-11-20T11:40:12;5.18;47.31
52297;DHT22;38244;51.046;17.038;2022-11-20T11:42:59;5.51;47.22
52297;DHT22;38244;51.046;17.038;2022-11-20T11:45:23;5.20;47.20
52297;DHT22;38244;51.046;17.038;2022-11-20T11:47:55;5.50;46.73
52297;DHT22;38244;51.046;17.038;2022-11-20T11:50:29;5.27;46.68
52297;DHT22;38244;51.046;17.038;2022-11-20T11:53:12;5.37;47.13
52297;DHT22;38244;51.046;17.038;2022-11-20T11:55:52;5.29;46.58
52297;DHT22;38244;51.046;17.038;2022-11-20T11:58:47;5.35;47.35
52297;DHT22;38244;51.046;17.038;2022-11-20T12:07:31;5.30;46.78
52297;DHT22;38244;51.046;17.038;2022-11-20T12:09:54;5.49;47.46
52297;DHT22;38244;51.046;17.038;2022-11-20T12:12:30;5.33;47.00
52297;DHT22;38244;51.046;17.038;2022-11-20T12:14:56;5.30;47.84
52297;DHT22;38244;51.046;17.038;2022-11-20T12:17:23;5.35;47.08
52297;DHT22;38244;51.046;17.038;2022-11-20T12:19:50;5.11;48.00
52297;DHT22;38244;51.046;17.038;2022-11-20T12:22:47;5.42;47.09
52297;DHT22;38244;51.046;17.038;2022-11-20T12:28:23;5.43;47.28
52297;DHT22;38244;51.046;17.038;2022-11-20T12:36:37;5.15;48.69
52297;DHT22;38244;51.046;17.038;2022-11-20T12:46:07;5.36;47.61
52297;DHT22;38244;51.046;17.038;2022-11-20T12:48:18;5.25;48.14
52297;DHT22;38244;51.046;17.038;2022-11-20T13:03:06;5.39;47.12
52297;DHT22;38244;51.046;17.038;2022-11-20T13:08:40;5.26;46.83
52297;DHT22;38244;51.046;17.038;2022-11-20T13:17:05;5.25;47.06
52297;DHT22;38244;51.046;17.038;2022-11-20T13:19:33;5.30;46.58
52297;DHT22;38244;51.046;17.038;2022-11-20T13:22:00;5.25;47.28
52297;DHT22;38244;51.046;17.038;2022-11-20T13:24:31;5.40;46.73
52297;DHT22;38244;51.046;17.038;2022-11-20T13:29:44;5.40;46.68
52297;DHT22;38244;51.046;17.038;2022-11-20T13:32:20;5.15;47.19
52297;DHT22;38244;51.046;17.038;2022-11-20T13:34:56;5.37;47.13
52297;DHT22;38244;51.046;17.038;2022-11-20T13:37:35;5.14;47.78
52297;DHT22;38244;51.046;17.038;2022-11-20T13:45:23;5.46;47.26
52297;DHT22;38244;51.046;17.038;2022-11-20T13:47:51;5.11;48.02
52297;DHT22;38244;51.046;17.038;2022-11-20T13:50:19;5.46;47.57
52297;DHT22;38244;51.046;17.038;2022-11-20T13:58:44;5.12;47.93
52297;DHT22;38244;51.046;17.038;2022-11-20T14:01:15;5.46;48.18
52297;DHT22;38244;51.046;17.038;2022-11-20T14:03:43;5.19;47.67
52297;DHT22;38244;51.046;17.038;2022-11-20T14:06:31;5.36;48.89
52297;DHT22;38244;51.046;17.038;2022-11-20T14:08:59;5.23;48.30
52297;DHT22;38244;51.046;17.038;2022-11-20T14:11:29;5.29;49.22
52297;DHT22;38244;51.046;17.038;2022-11-20T14:14:13;5.36;48.34
52297;DHT22;38244;51.046;17.038;2022-11-20T14:16:35;5.16;49.30
52297;DHT22;38244;51.046;17.038;2022-11-20T14:19:29;5.53;48.23
52297;DHT22;38244;51.046;17.038;2022-11-20T14:24:43;5.51;48.40
52297;DHT22;38244;51.046;17.038;2022-11-20T14:27:20;5.08;48.68
52297;DHT22;38244;51.046;17.038;2022-11-20T14:29:45;5.56;48.58
52297;DHT22;38244;51.046;17.038;2022-11-20T14:32:19;5.16;48.78
52297;DHT22;38244;51.046;17.038;2022-11-20T14:34:48;5.47;49.17
52297;DHT22;38244;51.046;17.038;2022-11-20T14:37:26;5.18;48.27
52297;DHT22;38244;51.046;17.038;2022-11-20T14:39:56;5.43;49.91
52297;DHT22;38244;51.046;17.038;2022-11-20T14:42:28;5.18;48.21
52297;DHT22;38244;51.046;17.038;2022-11-20T14:44:58;5.32;50.33
52297;DHT22;38244;51.046;17.038;2022-11-20T14:47:30;5.32;48.54
52297;DHT22;38244;51.046;17.038;2022-11-20T14:49:57;5.08;49.72
52297;DHT22;38244;51.046;17.038;2022-11-20T14:52:26;5.35;49.30
52297;DHT22;38244;51.046;17.038;2022-11-20T14:54:56;5.08;49.48
52297;DHT22;38244;51.046;17.038;2022-11-20T14:57:26;5.37;49.73
52297;DHT22;38244;51.046;17.038;2022-11-20T15:02:45;5.33;50.18
52297;DHT22;38244;51.046;17.038;2022-11-20T15:05:13;4.98;49.25
52297;DHT22;38244;51.046;17.038;2022-11-20T15:07:43;5.26;50.52
52297;DHT22;38244;51.046;17.038;2022-11-20T15:10:27;5.08;48.83
52297;DHT22;38244;51.046;17.038;2022-11-20T15:12:57;5.12;50.31
52297;DHT22;38244;51.046;17.038;2022-11-20T15:15:51;5.22;49.67
52297;DHT22;38244;51.046;17.038;2022-11-20T15:18:23;5.08;51.83
52297;DHT22;38244;51.046;17.038;2022-11-20T15:20:50;5.32;50.90
52297;DHT22;38244;51.046;17.038;2022-11-20T15:23:18;4.94;49.25
52297;DHT22;38244;51.046;17.038;2022-11-20T15:25:45;5.02;50.24
52297;DHT22;38244;51.046;17.038;2022-11-20T15:28:42;5.29;50.36
52297;DHT22;38244;51.046;17.038;2022-11-20T15:31:15;4.91;49.13
52297;DHT22;38244;51.046;17.038;2022-11-20T15:33:42;5.11;50.23
52297;DHT22;38244;51.046;17.038;2022-11-20T15:36:09;5.23;49.53
52297;DHT22;38244;51.046;17.038;2022-11-20T15:38:36;5.05;49.43
52297;DHT22;38244;51.046;17.038;2022-11-20T15:41:02;5.19;48.81
52297;DHT22;38244;51.046;17.038;2022-11-20T15:43:28;5.18;48.64
52297;DHT22;38244;51.046;17.038;2022-11-20T15:46:09;5.23;48.35
52297;DHT22;38244;51.046;17.038;2022-11-20T15:48:41;5.39;50.30
52297;DHT22;38244;51.046;17.038;2022-11-20T15:51:34;5.09;48.60
52297;DHT22;38244;51.046;17.038;2022-11-20T15:54:20;5.47;49.36
52297;DHT22;38244;51.046;17.038;2022-11-20T15:56:39;4.98;48.96
52297;DHT22;38244;51.046;17.038;2022-11-20T15:59:05;5.47;50.05
52297;DHT22;38244;51.046;17.038;2022-11-20T16:01:31;5.02;49.02
52297;DHT22;38244;51.046;17.038;2022-11-20T16:04:34;5.46;50.71
52297;DHT22;38244;51.046;17.038;2022-11-20T16:07:00;5.00;49.99
52297;DHT22;38244;51.046;17.038;2022-11-20T16:09:26;5.37;49.56
52297;DHT22;38244;51.046;17.038;2022-11-20T16:11:53;5.02;49.65
52297;DHT22;38244;51.046;17.038;2022-11-20T16:14:19;5.32;49.15
52297;DHT22;38244;51.046;17.038;2022-11-20T16:17:04;5.04;50.09
52297;DHT22;38244;51.046;17.038;2022-11-20T16:19:30;5.23;49.07
52297;DHT22;38244;51.046;17.038;2022-11-20T16:22:00;4.94;49.69
52297;DHT22;38244;51.046;17.038;2022-11-20T16:24:27;5.25;50.71
52297;DHT22;38244;51.046;17.038;2022-11-20T16:26:54;5.15;48.73
52297;DHT22;38244;51.046;17.038;2022-11-20T16:29:21;5.40;51.47
52297;DHT22;38244;51.046;17.038;2022-11-20T16:32:00;5.05;48.49
52297;DHT22;38244;51.046;17.038;2022-11-20T16:34:37;5.37;50.25
52297;DHT22;38244;51.046;17.038;2022-11-20T16:37:04;4.98;48.41
52297;DHT22;38244;51.046;17.038;2022-11-20T16:39:30;5.46;49.98
52297;DHT22;38244;51.046;17.038;2022-11-20T16:41:58;4.97;48.51
52297;DHT22;38244;51.046;17.038;2022-11-20T16:44:24;5.14;49.68
52297;DHT22;38244;51.046;17.038;2022-11-20T16:46:50;5.25;48.32
52297;DHT22;38244;51.046;17.038;2022-11-20T16:49:17;4.97;49.92
52297;DHT22;38244;51.046;17.038;2022-11-20T16:51:47;5.15;49.33
52297;DHT22;38244;51.046;17.038;2022-11-20T16:54:14;5.14;48.77
52297;DHT22;38244;51.046;17.038;2022-11-20T16:56:40;5.37;50.02
52297;DHT22;38244;51.046;17.038;2022-11-20T16:59:06;4.91;48.96
52297;DHT22;38244;51.046;17.038;2022-11-20T17:01:45;5.14;50.44
52297;DHT22;38244;51.046;17.038;2022-11-20T17:04:11;5.04;49.14
52297;DHT22;38244;51.046;17.038;2022-11-20T17:06:43;4.90;49.88
52297;DHT22;38244;51.046;17.038;2022-11-20T17:09:10;4.98;49.61
52297;DHT22;38244;51.046;17.038;2022-11-20T17:11:37;4.94;49.50
52297;DHT22;38244;51.046;17.038;2022-11-20T17:14:04;4.88;49.62
52297;DHT22;38244;51.046;17.038;2022-11-20T17:16:37;4.84;49.68
52297;DHT22;38244;51.046;17.038;2022-11-20T17:19:05;4.88;50.08
52297;DHT22;38244;51.046;17.038;2022-11-20T17:21:50;4.97;49.90
52297;DHT22;38244;51.046;17.038;2022-11-20T17:24:23;4.95;49.82
52297;DHT22;38244;51.046;17.038;2022-11-20T17:29:56;4.91;49.40
52297;DHT22;38244;51.046;17.038;2022-11-20T17:32:23;5.36;49.04
52297;DHT22;38244;51.046;17.038;2022-11-20T17:34:50;4.94;48.65
52297;DHT22;38244;51.046;17.038;2022-11-20T17:37:27;5.29;49.66
52297;DHT22;38244;51.046;17.038;2022-11-20T17:40:05;4.86;48.73
52297;DHT22;38244;51.046;17.038;2022-11-20T17:42:34;4.83;49.30
52297;DHT22;38244;51.046;17.038;2022-11-20T17:45:08;4.84;48.91
52297;DHT22;38244;51.046;17.038;2022-11-20T17:47:36;4.81;49.38